sensor_id;sensor_type;location;lat;lon;timestamp;P1;durP1;ratioP1;P2;durP2;ratioP2
11514;SDS011;5814;41.936;25.556;2023-05-07T00:00:38;8.33;;;7.73;;
11514;SDS011;5814;41.936;25.556;2023-05-07T00:03:04;9.37;;;8.07;;
11514;SDS011;5814;41.936;25.556;2023-05-07T00:05:31;8.20;;;7.60;;
11514;SDS011;5814;41.936;25.556;2023-05-07T00:07:57;8.23;;;7.60;;
11514;SDS011;5814;41.936;25.556;2023-05-07T00:10:23;8.70;;;7.97;;
11514;SDS011;5814;41.936;25.556;2023-05-07T00:12:50;8.37;;;7.63;;
11514;SDS011;5814;41.936;25.556;2023-05-07T00:15:16;8.97;;;8.10;;
11514;SDS011;5814;41.936;25.556;2023-05-07T00:17:42;8.00;;;7.37;;
11514;SDS011;5814;41.936;25.556;2023-05-07T00:20:09;8.13;;;7.50;;
11514;SDS011;5814;41.936;25.556;2023-05-07T00:22:36;8.07;;;7.57;;
11514;SDS011;5814;41.936;25.556;2023-05-07T00:25:02;7.70;;;7.20;;
11514;SDS011;5814;41.936;25.556;2023-05-07T00:27:29;8.57;;;7.77;;
11514;SDS011;5814;41.936;25.556;2023-05-07T00:29:55;8.10;;;7.60;;
11514;SDS011;5814;41.936;25.556;2023-05-07T00:32:22;8.03;;;7.27;;
11514;SDS011;5814;41.936;25.556;2023-05-07T00:34:48;7.90;;;7.40;;
11514;SDS011;5814;41.936;25.556;2023-05-07T00:37:14;8.30;;;7.80;;
11514;SDS011;5814;41.936;25.556;2023-05-07T00:39:41;9.10;;;7.97;;
11514;SDS011;5814;41.936;25.556;2023-05-07T00:42:07;8.80;;;8.17;;
11514;SDS011;5814;41.936;25.556;2023-05-07T00:44:33;8.87;;;8.03;;
11514;SDS011;5814;41.936;25.556;2023-05-07T00:47:01;10.40;;;8.23;;
11514;SDS011;5814;41.936;25.556;2023-05-07T00:49:27;11.30;;;9.00;;
11514;SDS011;5814;41.936;25.556;2023-05-07T00:51:52;8.93;;;8.10;;
11514;SDS011;5814;41.936;25.556;2023-05-07T00:54:19;8.67;;;7.97;;
11514;SDS011;5814;41.936;25.556;2023-05-07T00:56:45;9.50;;;8.07;;
11514;SDS011;5814;41.936;25.556;2023-05-07T00:59:11;9.67;;;8.77;;
11514;SDS011;5814;41.936;25.556;2023-05-07T01:01:38;9.50;;;8.70;;
11514;SDS011;5814;41.936;25.556;2023-05-07T01:04:04;9.00;;;8.33;;
11514;SDS011;5814;41.936;25.556;2023-05-07T01:06:30;9.60;;;8.70;;
11514;SDS011;5814;41.936;25.556;2023-05-07T01:08:57;10.33;;;8.97;;
11514;SDS011;5814;41.936;25.556;2023-05-07T01:11:23;10.03;;;9.23;;
11514;SDS011;5814;41.936;25.556;2023-05-07T01:13:49;10.10;;;9.20;;
11514;SDS011;5814;41.936;25.556;2023-05-07T01:16:16;10.57;;;9.70;;
11514;SDS011;5814;41.936;25.556;2023-05-07T01:18:42;9.97;;;9.13;;
11514;SDS011;5814;41.936;25.556;2023-05-07T01:21:08;10.67;;;9.60;;
11514;SDS011;5814;41.936;25.556;2023-05-07T01:23:35;10.20;;;9.50;;
11514;SDS011;5814;41.936;25.556;2023-05-07T01:26:01;9.97;;;9.27;;
11514;SDS011;5814;41.936;25.556;2023-05-07T01:28:28;10.27;;;9.53;;
11514;SDS011;5814;41.936;25.556;2023-05-07T01:30:54;9.97;;;9.37;;
11514;SDS011;5814;41.936;25.556;2023-05-07T01:33:21;10.33;;;9.33;;
11514;SDS011;5814;41.936;25.556;2023-05-07T01:35:48;11.03;;;10.03;;
11514;SDS011;5814;41.936;25.556;2023-05-07T01:38:14;10.33;;;9.53;;
11514;SDS011;5814;41.936;25.556;2023-05-07T01:40:40;9.57;;;8.90;;
11514;SDS011;5814;41.936;25.556;2023-05-07T01:43:06;10.43;;;9.73;;
11514;SDS011;5814;41.936;25.556;2023-05-07T01:45:33;10.00;;;9.30;;
11514;SDS011;5814;41.936;25.556;2023-05-07T01:48:00;10.57;;;9.70;;
11514;SDS011;5814;41.936;25.556;2023-05-07T01:50:26;10.30;;;9.60;;
11514;SDS011;5814;41.936;25.556;2023-05-07T01:52:52;11.47;;;10.63;;
11514;SDS011;5814;41.936;25.556;2023-05-07T01:55:18;10.07;;;9.33;;
11514;SDS011;5814;41.936;25.556;2023-05-07T01:57:45;10.17;;;9.47;;
11514;SDS011;5814;41.936;25.556;2023-05-07T02:00:11;10.83;;;10.00;;
11514;SDS011;5814;41.936;25.556;2023-05-07T02:02:38;10.33;;;9.67;;
11514;SDS011;5814;41.936;25.556;2023-05-07T02:05:04;10.17;;;9.47;;
11514;SDS011;5814;41.936;25.556;2023-05-07T02:07:31;10.10;;;9.43;;
11514;SDS011;5814;41.936;25.556;2023-05-07T02:09:57;10.57;;;9.70;;
11514;SDS011;5814;41.936;25.556;2023-05-07T02:12:24;9.93;;;9.23;;
11514;SDS011;5814;41.936;25.556;2023-05-07T02:14:50;9.53;;;8.93;;
11514;SDS011;5814;41.936;25.556;2023-05-07T02:17:16;9.90;;;9.10;;
11514;SDS011;5814;41.936;25.556;2023-05-07T02:19:43;10.10;;;9.17;;
11514;SDS011;5814;41.936;25.556;2023-05-07T02:22:09;9.43;;;8.83;;
11514;SDS011;5814;41.936;25.556;2023-05-07T02:24:35;10.43;;;9.53;;
11514;SDS011;5814;41.936;25.556;2023-05-07T02:27:02;10.83;;;9.93;;
11514;SDS011;5814;41.936;25.556;2023-05-07T02:29:28;10.53;;;9.83;;
11514;SDS011;5814;41.936;25.556;2023-05-07T02:31:54;10.67;;;9.90;;
11514;SDS011;5814;41.936;25.556;2023-05-07T02:34:21;10.00;;;9.20;;
11514;SDS011;5814;41.936;25.556;2023-05-07T02:36:47;10.20;;;9.40;;
11514;SDS011;5814;41.936;25.556;2023-05-07T02:39:14;10.90;;;9.90;;
11514;SDS011;5814;41.936;25.556;2023-05-07T02:41:40;10.90;;;9.50;;
11514;SDS011;5814;41.936;25.556;2023-05-07T02:44:06;10.97;;;10.13;;
11514;SDS011;5814;41.936;25.556;2023-05-07T02:46:33;10.63;;;9.70;;
11514;SDS011;5814;41.936;25.556;2023-05-07T02:48:59;10.80;;;9.87;;
11514;SDS011;5814;41.936;25.556;2023-05-07T02:51:25;11.20;;;10.30;;
11514;SDS011;5814;41.936;25.556;2023-05-07T02:53:52;10.83;;;10.00;;
11514;SDS011;5814;41.936;25.556;2023-05-07T02:56:18;11.10;;;10.17;;
11514;SDS011;5814;41.936;25.556;2023-05-07T02:58:44;14.47;;;10.97;;
11514;SDS011;5814;41.936;25.556;2023-05-07T03:01:11;11.83;;;10.03;;
11514;SDS011;5814;41.936;25.556;2023-05-07T03:03:37;11.37;;;9.80;;
11514;SDS011;5814;41.936;25.556;2023-05-07T03:06:04;11.00;;;10.30;;
11514;SDS011;5814;41.936;25.556;2023-05-07T03:08:30;11.53;;;10.53;;
11514;SDS011;5814;41.936;25.556;2023-05-07T03:10:56;11.10;;;10.30;;
11514;SDS011;5814;41.936;25.556;2023-05-07T03:13:23;11.07;;;10.23;;
11514;SDS011;5814;41.936;25.556;2023-05-07T03:15:49;11.57;;;10.60;;
11514;SDS011;5814;41.936;25.556;2023-05-07T03:18:15;11.30;;;10.40;;
11514;SDS011;5814;41.936;25.556;2023-05-07T03:20:42;11.10;;;10.30;;
11514;SDS011;5814;41.936;25.556;2023-05-07T03:23:08;11.57;;;10.63;;
11514;SDS011;5814;41.936;25.556;2023-05-07T03:25:34;10.67;;;9.70;;
11514;SDS011;5814;41.936;25.556;2023-05-07T03:28:01;10.77;;;10.07;;
11514;SDS011;5814;41.936;25.556;2023-05-07T03:30:27;10.93;;;10.10;;
11514;SDS011;5814;41.936;25.556;2023-05-07T03:32:53;11.13;;;10.13;;
11514;SDS011;5814;41.936;25.556;2023-05-07T03:35:20;10.57;;;9.87;;
11514;SDS011;5814;41.936;25.556;2023-05-07T03:37:46;10.80;;;10.10;;
11514;SDS011;5814;41.936;25.556;2023-05-07T03:40:12;11.17;;;10.23;;
11514;SDS011;5814;41.936;25.556;2023-05-07T03:42:39;11.33;;;10.53;;
11514;SDS011;5814;41.936;25.556;2023-05-07T03:45:06;10.43;;;9.67;;
11514;SDS011;5814;41.936;25.556;2023-05-07T03:47:32;11.20;;;10.20;;
11514;SDS011;5814;41.936;25.556;2023-05-07T03:49:59;11.60;;;10.60;;
11514;SDS011;5814;41.936;25.556;2023-05-07T03:52:25;11.10;;;10.20;;
11514;SDS011;5814;41.936;25.556;2023-05-07T03:54:52;10.90;;;10.10;;
11514;SDS011;5814;41.936;25.556;2023-05-07T03:57:19;10.40;;;9.70;;
11514;SDS011;5814;41.936;25.556;2023-05-07T03:59:45;10.63;;;9.57;;
11514;SDS011;5814;41.936;25.556;2023-05-07T04:02:11;9.30;;;8.70;;
11514;SDS011;5814;41.936;25.556;2023-05-07T04:04:38;9.50;;;8.80;;
11514;SDS011;5814;41.936;25.556;2023-05-07T04:07:04;9.63;;;8.93;;
11514;SDS011;5814;41.936;25.556;2023-05-07T04:09:30;9.57;;;9.00;;
11514;SDS011;5814;41.936;25.556;2023-05-07T04:11:57;9.87;;;9.17;;
11514;SDS011;5814;41.936;25.556;2023-05-07T04:14:23;9.93;;;9.10;;
11514;SDS011;5814;41.936;25.556;2023-05-07T04:16:49;9.27;;;8.67;;
11514;SDS011;5814;41.936;25.556;2023-05-07T04:19:16;9.30;;;8.60;;
11514;SDS011;5814;41.936;25.556;2023-05-07T04:21:42;9.10;;;8.47;;
11514;SDS011;5814;41.936;25.556;2023-05-07T04:24:08;8.97;;;8.23;;
11514;SDS011;5814;41.936;25.556;2023-05-07T04:26:35;10.60;;;10.00;;
11514;SDS011;5814;41.936;25.556;2023-05-07T04:29:01;9.50;;;8.70;;
11514;SDS011;5814;41.936;25.556;2023-05-07T04:31:27;7.40;;;6.80;;
11514;SDS011;5814;41.936;25.556;2023-05-07T04:33:54;7.83;;;7.03;;
11514;SDS011;5814;41.936;25.556;2023-05-07T04:36:20;8.03;;;7.33;;
11514;SDS011;5814;41.936;25.556;2023-05-07T04:38:46;7.28;;;6.57;;
11514;SDS011;5814;41.936;25.556;2023-05-07T04:41:13;7.62;;;6.82;;
11514;SDS011;5814;41.936;25.556;2023-05-07T04:43:39;7.47;;;6.28;;
11514;SDS011;5814;41.936;25.556;2023-05-07T04:46:05;6.95;;;6.32;;
11514;SDS011;5814;41.936;25.556;2023-05-07T04:48:32;6.95;;;6.30;;
11514;SDS011;5814;41.936;25.556;2023-05-07T04:50:58;8.02;;;6.32;;
11514;SDS011;5814;41.936;25.556;2023-05-07T04:53:24;7.25;;;6.43;;
11514;SDS011;5814;41.936;25.556;2023-05-07T04:55:55;7.00;;;6.50;;
11514;SDS011;5814;41.936;25.556;2023-05-07T04:58:21;6.70;;;6.10;;
11514;SDS011;5814;41.936;25.556;2023-05-07T05:00:47;7.47;;;6.87;;
11514;SDS011;5814;41.936;25.556;2023-05-07T05:03:14;10.20;;;7.60;;
11514;SDS011;5814;41.936;25.556;2023-05-07T05:05:40;8.07;;;7.53;;
11514;SDS011;5814;41.936;25.556;2023-05-07T05:08:06;9.48;;;8.75;;
11514;SDS011;5814;41.936;25.556;2023-05-07T05:10:33;9.18;;;8.48;;
11514;SDS011;5814;41.936;25.556;2023-05-07T05:12:59;8.43;;;7.82;;
11514;SDS011;5814;41.936;25.556;2023-05-07T05:15:25;9.10;;;8.40;;
11514;SDS011;5814;41.936;25.556;2023-05-07T05:17:52;9.20;;;8.30;;
11514;SDS011;5814;41.936;25.556;2023-05-07T05:20:18;8.68;;;7.78;;
11514;SDS011;5814;41.936;25.556;2023-05-07T05:22:44;7.97;;;7.25;;
11514;SDS011;5814;41.936;25.556;2023-05-07T05:25:11;8.13;;;7.43;;
11514;SDS011;5814;41.936;25.556;2023-05-07T05:27:37;8.95;;;8.13;;
11514;SDS011;5814;41.936;25.556;2023-05-07T05:30:04;8.80;;;8.00;;
11514;SDS011;5814;41.936;25.556;2023-05-07T05:32:30;9.20;;;8.45;;
11514;SDS011;5814;41.936;25.556;2023-05-07T05:34:57;8.90;;;8.10;;
11514;SDS011;5814;41.936;25.556;2023-05-07T05:37:23;8.57;;;7.78;;
11514;SDS011;5814;41.936;25.556;2023-05-07T05:39:49;9.60;;;8.70;;
11514;SDS011;5814;41.936;25.556;2023-05-07T05:42:16;9.40;;;8.60;;
11514;SDS011;5814;41.936;25.556;2023-05-07T05:44:42;8.32;;;7.68;;
11514;SDS011;5814;41.936;25.556;2023-05-07T05:47:08;8.77;;;7.87;;
11514;SDS011;5814;41.936;25.556;2023-05-07T05:49:35;8.65;;;7.85;;
11514;SDS011;5814;41.936;25.556;2023-05-07T05:52:01;8.38;;;7.62;;
11514;SDS011;5814;41.936;25.556;2023-05-07T05:54:27;8.07;;;7.47;;
11514;SDS011;5814;41.936;25.556;2023-05-07T05:56:54;8.98;;;8.32;;
11514;SDS011;5814;41.936;25.556;2023-05-07T05:59:20;7.68;;;7.00;;
11514;SDS011;5814;41.936;25.556;2023-05-07T06:01:46;8.10;;;7.40;;
11514;SDS011;5814;41.936;25.556;2023-05-07T06:04:13;7.97;;;7.35;;
11514;SDS011;5814;41.936;25.556;2023-05-07T06:06:39;7.82;;;7.18;;
11514;SDS011;5814;41.936;25.556;2023-05-07T06:09:05;8.77;;;7.93;;
11514;SDS011;5814;41.936;25.556;2023-05-07T06:11:32;7.40;;;6.80;;
11514;SDS011;5814;41.936;25.556;2023-05-07T06:13:58;8.05;;;7.45;;
11514;SDS011;5814;41.936;25.556;2023-05-07T06:16:24;7.55;;;6.65;;
11514;SDS011;5814;41.936;25.556;2023-05-07T06:18:51;8.27;;;7.10;;
11514;SDS011;5814;41.936;25.556;2023-05-07T06:21:17;7.80;;;7.07;;
11514;SDS011;5814;41.936;25.556;2023-05-07T06:23:43;7.25;;;6.72;;
11514;SDS011;5814;41.936;25.556;2023-05-07T06:26:10;10.23;;;7.37;;
11514;SDS011;5814;41.936;25.556;2023-05-07T06:28:36;9.38;;;7.40;;
11514;SDS011;5814;41.936;25.556;2023-05-07T06:33:35;7.37;;;6.95;;
11514;SDS011;5814;41.936;25.556;2023-05-07T06:36:01;7.90;;;7.30;;
11514;SDS011;5814;41.936;25.556;2023-05-07T06:38:27;8.10;;;6.90;;
11514;SDS011;5814;41.936;25.556;2023-05-07T06:40:54;7.30;;;6.80;;
11514;SDS011;5814;41.936;25.556;2023-05-07T06:43:20;11.10;;;7.15;;
11514;SDS011;5814;41.936;25.556;2023-05-07T06:45:46;7.85;;;7.10;;
11514;SDS011;5814;41.936;25.556;2023-05-07T06:48:13;9.07;;;7.60;;
11514;SDS011;5814;41.936;25.556;2023-05-07T06:50:39;8.55;;;7.87;;
11514;SDS011;5814;41.936;25.556;2023-05-07T06:53:05;8.55;;;6.90;;
11514;SDS011;5814;41.936;25.556;2023-05-07T06:55:32;7.55;;;6.87;;
11514;SDS011;5814;41.936;25.556;2023-05-07T06:57:58;7.47;;;6.87;;
11514;SDS011;5814;41.936;25.556;2023-05-07T07:00:24;8.27;;;7.68;;
11514;SDS011;5814;41.936;25.556;2023-05-07T07:02:51;8.35;;;7.68;;
11514;SDS011;5814;41.936;25.556;2023-05-07T07:05:17;8.38;;;7.68;;
11514;SDS011;5814;41.936;25.556;2023-05-07T07:07:44;8.10;;;7.53;;
11514;SDS011;5814;41.936;25.556;2023-05-07T07:10:10;8.95;;;8.15;;
11514;SDS011;5814;41.936;25.556;2023-05-07T07:12:36;8.90;;;8.20;;
11514;SDS011;5814;41.936;25.556;2023-05-07T07:15:03;8.98;;;8.10;;
11514;SDS011;5814;41.936;25.556;2023-05-07T07:17:30;8.43;;;7.43;;
11514;SDS011;5814;41.936;25.556;2023-05-07T07:19:56;7.82;;;7.22;;
11514;SDS011;5814;41.936;25.556;2023-05-07T07:22:22;6.55;;;6.00;;
11514;SDS011;5814;41.936;25.556;2023-05-07T07:24:49;7.40;;;6.80;;
11514;SDS011;5814;41.936;25.556;2023-05-07T07:27:15;6.68;;;6.18;;
11514;SDS011;5814;41.936;25.556;2023-05-07T07:29:41;7.00;;;6.50;;
11514;SDS011;5814;41.936;25.556;2023-05-07T07:32:08;6.55;;;6.15;;
11514;SDS011;5814;41.936;25.556;2023-05-07T07:34:34;7.10;;;6.50;;
11514;SDS011;5814;41.936;25.556;2023-05-07T07:37:00;8.95;;;6.40;;
11514;SDS011;5814;41.936;25.556;2023-05-07T07:39:27;6.90;;;6.35;;
11514;SDS011;5814;41.936;25.556;2023-05-07T07:41:53;7.10;;;6.57;;
11514;SDS011;5814;41.936;25.556;2023-05-07T07:44:20;6.40;;;6.00;;
11514;SDS011;5814;41.936;25.556;2023-05-07T07:46:46;6.93;;;6.32;;
11514;SDS011;5814;41.936;25.556;2023-05-07T07:49:12;6.75;;;6.25;;
11514;SDS011;5814;41.936;25.556;2023-05-07T07:51:39;6.97;;;6.30;;
11514;SDS011;5814;41.936;25.556;2023-05-07T07:54:05;7.43;;;6.82;;
11514;SDS011;5814;41.936;25.556;2023-05-07T07:56:32;6.93;;;6.40;;
11514;SDS011;5814;41.936;25.556;2023-05-07T07:58:58;7.10;;;6.40;;
11514;SDS011;5814;41.936;25.556;2023-05-07T08:01:24;7.22;;;6.53;;
11514;SDS011;5814;41.936;25.556;2023-05-07T08:03:50;8.90;;;5.78;;
11514;SDS011;5814;41.936;25.556;2023-05-07T08:06:17;6.97;;;6.47;;
11514;SDS011;5814;41.936;25.556;2023-05-07T08:08:43;7.93;;;7.18;;
11514;SDS011;5814;41.936;25.556;2023-05-07T08:11:09;6.22;;;5.72;;
11514;SDS011;5814;41.936;25.556;2023-05-07T08:13:36;5.87;;;5.30;;
11514;SDS011;5814;41.936;25.556;2023-05-07T08:16:02;6.43;;;5.47;;
11514;SDS011;5814;41.936;25.556;2023-05-07T08:18:29;6.78;;;6.25;;
11514;SDS011;5814;41.936;25.556;2023-05-07T08:20:55;6.53;;;6.05;;
11514;SDS011;5814;41.936;25.556;2023-05-07T08:23:22;6.35;;;5.95;;
11514;SDS011;5814;41.936;25.556;2023-05-07T08:25:49;6.22;;;5.82;;
11514;SDS011;5814;41.936;25.556;2023-05-07T08:28:15;6.03;;;5.62;;
11514;SDS011;5814;41.936;25.556;2023-05-07T08:30:41;6.05;;;5.45;;
11514;SDS011;5814;41.936;25.556;2023-05-07T08:33:09;6.00;;;5.65;;
11514;SDS011;5814;41.936;25.556;2023-05-07T08:35:35;5.72;;;5.32;;
11514;SDS011;5814;41.936;25.556;2023-05-07T08:38:01;6.15;;;5.75;;
11514;SDS011;5814;41.936;25.556;2023-05-07T08:40:28;6.65;;;6.07;;
11514;SDS011;5814;41.936;25.556;2023-05-07T08:42:54;5.07;;;4.75;;
11514;SDS011;5814;41.936;25.556;2023-05-07T08:45:20;5.65;;;5.35;;
11514;SDS011;5814;41.936;25.556;2023-05-07T08:47:47;7.30;;;5.30;;
11514;SDS011;5814;41.936;25.556;2023-05-07T08:50:13;5.72;;;5.22;;
11514;SDS011;5814;41.936;25.556;2023-05-07T08:52:40;6.57;;;5.90;;
11514;SDS011;5814;41.936;25.556;2023-05-07T08:55:06;10.05;;;5.57;;
11514;SDS011;5814;41.936;25.556;2023-05-07T08:57:33;5.35;;;4.95;;
11514;SDS011;5814;41.936;25.556;2023-05-07T08:59:59;5.68;;;5.28;;
11514;SDS011;5814;41.936;25.556;2023-05-07T09:02:25;5.80;;;5.40;;
11514;SDS011;5814;41.936;25.556;2023-05-07T09:04:52;4.90;;;4.60;;
11514;SDS011;5814;41.936;25.556;2023-05-07T09:07:19;5.00;;;4.65;;
11514;SDS011;5814;41.936;25.556;2023-05-07T09:09:44;5.25;;;4.85;;
11514;SDS011;5814;41.936;25.556;2023-05-07T09:12:11;5.28;;;4.82;;
11514;SDS011;5814;41.936;25.556;2023-05-07T09:14:37;5.82;;;5.40;;
11514;SDS011;5814;41.936;25.556;2023-05-07T09:17:03;5.43;;;4.97;;
11514;SDS011;5814;41.936;25.556;2023-05-07T09:19:30;5.37;;;4.87;;
11514;SDS011;5814;41.936;25.556;2023-05-07T09:21:58;5.40;;;5.00;;
11514;SDS011;5814;41.936;25.556;2023-05-07T09:24:23;6.28;;;5.10;;
11514;SDS011;5814;41.936;25.556;2023-05-07T09:26:50;5.60;;;5.15;;
11514;SDS011;5814;41.936;25.556;2023-05-07T09:29:16;5.43;;;5.03;;
11514;SDS011;5814;41.936;25.556;2023-05-07T09:31:42;5.28;;;4.85;;
11514;SDS011;5814;41.936;25.556;2023-05-07T09:34:09;5.22;;;4.82;;
11514;SDS011;5814;41.936;25.556;2023-05-07T09:36:35;5.03;;;4.68;;
11514;SDS011;5814;41.936;25.556;2023-05-07T09:39:01;5.82;;;5.32;;
11514;SDS011;5814;41.936;25.556;2023-05-07T09:41:30;5.70;;;5.28;;
11514;SDS011;5814;41.936;25.556;2023-05-07T09:43:54;5.50;;;5.00;;
11514;SDS011;5814;41.936;25.556;2023-05-07T09:46:21;5.43;;;5.00;;
11514;SDS011;5814;41.936;25.556;2023-05-07T09:48:47;4.87;;;4.55;;
11514;SDS011;5814;41.936;25.556;2023-05-07T09:51:18;5.10;;;4.60;;
11514;SDS011;5814;41.936;25.556;2023-05-07T09:53:41;6.50;;;5.03;;
11514;SDS011;5814;41.936;25.556;2023-05-07T09:56:08;5.40;;;5.00;;
11514;SDS011;5814;41.936;25.556;2023-05-07T09:58:36;5.45;;;4.95;;
11514;SDS011;5814;41.936;25.556;2023-05-07T10:01:00;5.22;;;4.82;;
11514;SDS011;5814;41.936;25.556;2023-05-07T10:03:27;7.12;;;4.87;;
11514;SDS011;5814;41.936;25.556;2023-05-07T10:05:53;4.90;;;4.60;;
11514;SDS011;5814;41.936;25.556;2023-05-07T10:08:19;5.03;;;4.62;;
11514;SDS011;5814;41.936;25.556;2023-05-07T10:10:46;5.20;;;4.72;;
11514;SDS011;5814;41.936;25.556;2023-05-07T10:13:12;6.80;;;4.93;;
11514;SDS011;5814;41.936;25.556;2023-05-07T10:15:38;5.60;;;5.18;;
11514;SDS011;5814;41.936;25.556;2023-05-07T10:18:05;4.97;;;4.68;;
11514;SDS011;5814;41.936;25.556;2023-05-07T10:20:32;5.10;;;4.80;;
11514;SDS011;5814;41.936;25.556;2023-05-07T10:22:58;5.80;;;5.22;;
11514;SDS011;5814;41.936;25.556;2023-05-07T10:25:28;4.55;;;4.35;;
11514;SDS011;5814;41.936;25.556;2023-05-07T10:27:52;5.00;;;4.70;;
11514;SDS011;5814;41.936;25.556;2023-05-07T10:31:29;4.28;;;4.03;;
11514;SDS011;5814;41.936;25.556;2023-05-07T10:33:01;5.90;;;5.50;;
11514;SDS011;5814;41.936;25.556;2023-05-07T10:35:29;5.07;;;4.60;;
11514;SDS011;5814;41.936;25.556;2023-05-07T10:37:53;4.72;;;4.35;;
11514;SDS011;5814;41.936;25.556;2023-05-07T10:40:20;5.45;;;4.28;;
11514;SDS011;5814;41.936;25.556;2023-05-07T10:42:57;4.60;;;4.20;;
11514;SDS011;5814;41.936;25.556;2023-05-07T10:45:23;6.03;;;4.30;;
11514;SDS011;5814;41.936;25.556;2023-05-07T10:50:22;6.75;;;4.82;;
11514;SDS011;5814;41.936;25.556;2023-05-07T10:53:15;5.00;;;4.40;;
11514;SDS011;5814;41.936;25.556;2023-05-07T10:55:19;4.72;;;4.43;;
11514;SDS011;5814;41.936;25.556;2023-05-07T10:57:45;4.90;;;4.50;;
11514;SDS011;5814;41.936;25.556;2023-05-07T11:03:06;4.68;;;4.30;;
11514;SDS011;5814;41.936;25.556;2023-05-07T11:05:32;4.62;;;4.28;;
11514;SDS011;5814;41.936;25.556;2023-05-07T11:07:59;4.90;;;4.40;;
11514;SDS011;5814;41.936;25.556;2023-05-07T11:10:59;5.40;;;4.43;;
11514;SDS011;5814;41.936;25.556;2023-05-07T11:13:08;5.10;;;4.60;;
11514;SDS011;5814;41.936;25.556;2023-05-07T11:15:35;5.12;;;4.70;;
11514;SDS011;5814;41.936;25.556;2023-05-07T11:18:01;5.47;;;5.05;;
11514;SDS011;5814;41.936;25.556;2023-05-07T11:22:59;5.15;;;4.85;;
11514;SDS011;5814;41.936;25.556;2023-05-07T11:25:26;7.78;;;6.20;;
11514;SDS011;5814;41.936;25.556;2023-05-07T11:27:52;5.18;;;4.72;;
11514;SDS011;5814;41.936;25.556;2023-05-07T11:30:18;4.68;;;4.28;;
11514;SDS011;5814;41.936;25.556;2023-05-07T11:32:46;5.10;;;4.80;;
11514;SDS011;5814;41.936;25.556;2023-05-07T11:35:11;5.00;;;4.68;;
11514;SDS011;5814;41.936;25.556;2023-05-07T11:37:37;4.80;;;4.50;;
11514;SDS011;5814;41.936;25.556;2023-05-07T11:40:04;5.20;;;4.90;;
11514;SDS011;5814;41.936;25.556;2023-05-07T11:42:33;6.10;;;4.60;;
11514;SDS011;5814;41.936;25.556;2023-05-07T11:44:58;5.05;;;4.55;;
11514;SDS011;5814;41.936;25.556;2023-05-07T11:47:25;5.10;;;4.80;;
11514;SDS011;5814;41.936;25.556;2023-05-07T11:49:52;4.85;;;4.45;;
11514;SDS011;5814;41.936;25.556;2023-05-07T11:52:18;4.60;;;4.37;;
11514;SDS011;5814;41.936;25.556;2023-05-07T11:54:50;4.43;;;4.12;;
11514;SDS011;5814;41.936;25.556;2023-05-07T11:57:16;4.45;;;4.10;;
11514;SDS011;5814;41.936;25.556;2023-05-07T11:59:42;4.78;;;4.12;;
11514;SDS011;5814;41.936;25.556;2023-05-07T12:02:13;4.50;;;4.30;;
11514;SDS011;5814;41.936;25.556;2023-05-07T12:04:38;4.45;;;3.90;;
11514;SDS011;5814;41.936;25.556;2023-05-07T12:07:04;4.60;;;4.20;;
11514;SDS011;5814;41.936;25.556;2023-05-07T12:09:32;4.90;;;4.60;;
11514;SDS011;5814;41.936;25.556;2023-05-07T12:11:57;5.07;;;4.68;;
11514;SDS011;5814;41.936;25.556;2023-05-07T12:14:26;5.47;;;5.12;;
11514;SDS011;5814;41.936;25.556;2023-05-07T12:16:49;5.22;;;4.70;;
11514;SDS011;5814;41.936;25.556;2023-05-07T12:19:16;5.00;;;4.60;;
11514;SDS011;5814;41.936;25.556;2023-05-07T12:21:42;5.05;;;4.65;;
11514;SDS011;5814;41.936;25.556;2023-05-07T12:24:08;4.60;;;4.30;;
11514;SDS011;5814;41.936;25.556;2023-05-07T12:26:38;5.12;;;4.68;;
11514;SDS011;5814;41.936;25.556;2023-05-07T12:29:04;4.35;;;4.15;;
11514;SDS011;5814;41.936;25.556;2023-05-07T12:31:30;4.72;;;4.53;;
11514;SDS011;5814;41.936;25.556;2023-05-07T12:33:57;4.47;;;4.18;;
11514;SDS011;5814;41.936;25.556;2023-05-07T12:36:23;4.85;;;4.55;;
11514;SDS011;5814;41.936;25.556;2023-05-07T12:38:49;4.93;;;4.65;;
11514;SDS011;5814;41.936;25.556;2023-05-07T12:41:16;4.78;;;4.55;;
11514;SDS011;5814;41.936;25.556;2023-05-07T12:43:43;5.55;;;5.10;;
11514;SDS011;5814;41.936;25.556;2023-05-07T12:46:09;4.80;;;4.60;;
11514;SDS011;5814;41.936;25.556;2023-05-07T12:48:36;5.45;;;5.05;;
11514;SDS011;5814;41.936;25.556;2023-05-07T12:51:02;5.55;;;4.78;;
11514;SDS011;5814;41.936;25.556;2023-05-07T12:53:29;5.68;;;5.18;;
11514;SDS011;5814;41.936;25.556;2023-05-07T12:55:56;4.87;;;4.60;;
11514;SDS011;5814;41.936;25.556;2023-05-07T12:58:27;5.10;;;4.50;;
11514;SDS011;5814;41.936;25.556;2023-05-07T13:00:53;5.00;;;4.80;;
11514;SDS011;5814;41.936;25.556;2023-05-07T13:03:22;5.43;;;5.12;;
11514;SDS011;5814;41.936;25.556;2023-05-07T13:05:47;4.55;;;4.35;;
11514;SDS011;5814;41.936;25.556;2023-05-07T13:08:22;5.32;;;4.68;;
11514;SDS011;5814;41.936;25.556;2023-05-07T13:10:40;4.55;;;4.35;;
11514;SDS011;5814;41.936;25.556;2023-05-07T13:13:06;5.40;;;4.90;;
11514;SDS011;5814;41.936;25.556;2023-05-07T13:15:33;4.80;;;4.50;;
11514;SDS011;5814;41.936;25.556;2023-05-07T13:17:59;4.95;;;4.65;;
11514;SDS011;5814;41.936;25.556;2023-05-07T13:20:25;4.60;;;4.40;;
11514;SDS011;5814;41.936;25.556;2023-05-07T13:22:52;4.87;;;4.60;;
11514;SDS011;5814;41.936;25.556;2023-05-07T13:25:18;4.95;;;4.60;;
11514;SDS011;5814;41.936;25.556;2023-05-07T13:27:44;4.53;;;4.20;;
11514;SDS011;5814;41.936;25.556;2023-05-07T13:30:11;4.53;;;4.32;;
11514;SDS011;5814;41.936;25.556;2023-05-07T13:32:38;5.25;;;4.78;;
11514;SDS011;5814;41.936;25.556;2023-05-07T13:35:04;5.20;;;4.90;;
11514;SDS011;5814;41.936;25.556;2023-05-07T13:37:31;4.75;;;4.45;;
11514;SDS011;5814;41.936;25.556;2023-05-07T13:39:57;5.50;;;5.00;;
11514;SDS011;5814;41.936;25.556;2023-05-07T13:42:23;4.65;;;4.35;;
11514;SDS011;5814;41.936;25.556;2023-05-07T13:44:50;5.70;;;5.30;;
11514;SDS011;5814;41.936;25.556;2023-05-07T13:47:16;5.05;;;4.72;;
11514;SDS011;5814;41.936;25.556;2023-05-07T13:49:42;4.85;;;4.55;;
11514;SDS011;5814;41.936;25.556;2023-05-07T13:52:09;5.40;;;4.87;;
11514;SDS011;5814;41.936;25.556;2023-05-07T13:54:35;5.15;;;4.80;;
11514;SDS011;5814;41.936;25.556;2023-05-07T13:57:02;5.55;;;5.03;;
11514;SDS011;5814;41.936;25.556;2023-05-07T13:59:28;5.40;;;5.07;;
11514;SDS011;5814;41.936;25.556;2023-05-07T14:01:54;4.85;;;4.65;;
11514;SDS011;5814;41.936;25.556;2023-05-07T14:04:21;5.10;;;4.80;;
11514;SDS011;5814;41.936;25.556;2023-05-07T14:06:47;5.32;;;5.03;;
11514;SDS011;5814;41.936;25.556;2023-05-07T14:09:13;4.40;;;4.10;;
11514;SDS011;5814;41.936;25.556;2023-05-07T14:11:40;4.78;;;4.30;;
11514;SDS011;5814;41.936;25.556;2023-05-07T14:14:06;4.70;;;4.50;;
11514;SDS011;5814;41.936;25.556;2023-05-07T14:16:32;4.82;;;4.43;;
11514;SDS011;5814;41.936;25.556;2023-05-07T14:18:59;4.55;;;4.35;;
11514;SDS011;5814;41.936;25.556;2023-05-07T14:21:25;4.65;;;4.40;;
11514;SDS011;5814;41.936;25.556;2023-05-07T14:23:51;4.57;;;4.37;;
11514;SDS011;5814;41.936;25.556;2023-05-07T14:26:18;5.25;;;4.95;;
11514;SDS011;5814;41.936;25.556;2023-05-07T14:28:44;4.62;;;4.32;;
11514;SDS011;5814;41.936;25.556;2023-05-07T14:31:10;4.45;;;4.10;;
11514;SDS011;5814;41.936;25.556;2023-05-07T14:33:37;4.62;;;4.40;;
11514;SDS011;5814;41.936;25.556;2023-05-07T14:36:03;4.70;;;4.30;;
11514;SDS011;5814;41.936;25.556;2023-05-07T14:38:29;4.68;;;4.30;;
11514;SDS011;5814;41.936;25.556;2023-05-07T14:40:56;5.28;;;4.50;;
11514;SDS011;5814;41.936;25.556;2023-05-07T14:43:22;4.40;;;4.20;;
11514;SDS011;5814;41.936;25.556;2023-05-07T14:45:49;4.32;;;4.12;;
11514;SDS011;5814;41.936;25.556;2023-05-07T14:48:15;5.00;;;4.70;;